Time,TemperatureF,DewpointF,PressureIn,WindDirection,WindDirectionDegrees,WindSpeedMPH,WindSpeedGustMPH,Humidity,HourlyPrecipIn,Conditions,Clouds,dailyrainin,SoftwareType,DateUTC
2013-09-22 00:13:00,66.4,64.3,29.64,NNW,337,0.0,-999.0,93,-99.99,,,0.00,Acu-Link.com,2013-09-22 04:13:00,
2013-09-22 00:28:00,66.4,64.3,29.64,North,0,1.7,-999.0,93,-99.99,,,0.00,Acu-Link.com,2013-09-22 04:28:00,
2013-09-22 00:43:00,66.6,64.5,29.63,West,270,2.7,-999.0,93,-99.99,,,0.00,Acu-Link.com,2013-09-22 04:43:00,
2013-09-22 00:59:00,66.9,64.8,29.62,SSW,202,3.2,-999.0,93,-99.99,,,0.00,Acu-Link.com,2013-09-22 04:59:00,
2013-09-22 01:14:00,66.9,64.8,29.61,SW,225,0.0,-999.0,93,-99.99,,,0.00,Acu-Link.com,2013-09-22 05:14:00,
2013-09-22 01:29:00,66.9,64.8,29.61,ESE,112,2.2,-999.0,93,-99.99,,,0.00,Acu-Link.com,2013-09-22 05:29:00,
2013-09-22 01:44:00,66.9,65.1,29.60,WNW,292,1.1,-999.0,94,-99.99,,,0.01,Acu-Link.com,2013-09-22 05:44:00,
2013-09-22 02:00:00,66.7,64.9,29.59,NNE,22,0.0,-999.0,94,-99.99,,,0.05,Acu-Link.com,2013-09-22 06:00:00,
2013-09-22 02:15:00,66.7,65.2,29.57,NW,315,0.0,-999.0,95,-99.99,,,0.05,Acu-Link.com,2013-09-22 06:15:00,
2013-09-22 02:30:00,66.7,65.2,29.57,East,90,1.1,-999.0,95,-99.99,,,0.05,Acu-Link.com,2013-09-22 06:30:00,
2013-09-22 02:46:00,66.7,65.2,29.56,South,180,0.0,-999.0,95,-99.99,,,0.05,Acu-Link.com,2013-09-22 06:46:00,
2013-09-22 03:01:00,66.7,65.2,29.55,ESE,112,1.7,-999.0,95,-99.99,,,0.05,Acu-Link.com,2013-09-22 07:01:00,
2013-09-22 03:16:00,66.9,65.4,29.55,SSE,157,1.7,-999.0,95,-99.99,,,0.05,Acu-Link.com,2013-09-22 07:16:00,
2013-09-22 03:31:00,67.1,65.6,29.54,ESE,112,2.2,-999.0,95,-99.99,,,0.05,Acu-Link.com,2013-09-22 07:31:00,
2013-09-22 03:46:00,67.3,65.8,29.53,ENE,67,2.2,-999.0,95,-99.99,,,0.05,Acu-Link.com,2013-09-22 07:46:00,
2013-09-22 04:02:00,67.5,66.0,29.53,NNW,337,1.1,-999.0,95,-99.99,,,0.05,Acu-Link.com,2013-09-22 08:02:00,
2013-09-22 04:17:00,67.5,66.0,29.53,South,180,4.2,-999.0,95,-99.99,,,0.05,Acu-Link.com,2013-09-22 08:17:00,
2013-09-22 04:34:00,67.6,66.1,29.52,NE,45,2.2,-999.0,95,-99.99,,,0.06,Acu-Link.com,2013-09-22 08:34:00,
2013-09-22 04:49:00,67.6,66.1,29.53,NW,315,4.2,-999.0,95,-99.99,,,0.08,Acu-Link.com,2013-09-22 08:49:00,
2013-09-22 05:04:00,67.3,65.8,29.53,South,180,4.2,-999.0,95,-99.99,,,0.11,Acu-Link.com,2013-09-22 09:04:00,
2013-09-22 05:20:00,66.4,65.2,29.55,NW,315,3.2,-999.0,96,-99.99,,,0.38,Acu-Link.com,2013-09-22 09:20:00,
2013-09-22 05:35:00,63.5,61.7,29.54,WNW,292,0.0,-999.0,94,-99.99,,,0.54,Acu-Link.com,2013-09-22 09:35:00,
2013-09-22 05:50:00,62.1,60.6,29.57,ESE,112,2.2,-999.0,95,-99.99,,,0.59,Acu-Link.com,2013-09-22 09:50:00,
2013-09-22 06:05:00,61.9,60.5,29.57,NE,45,0.0,-999.0,95,-99.99,,,0.62,Acu-Link.com,2013-09-22 10:05:00,
2013-09-22 06:20:00,61.3,59.9,29.57,NNW,337,0.0,-999.0,95,-99.99,,,0.62,Acu-Link.com,2013-09-22 10:20:00,
2013-09-22 06:36:00,61.2,60.0,29.59,SSW,202,2.7,-999.0,96,-99.99,,,0.63,Acu-Link.com,2013-09-22 10:36:00,
2013-09-22 06:51:00,61.2,60.0,29.59,East,90,0.0,-999.0,96,-99.99,,,0.65,Acu-Link.com,2013-09-22 10:51:00,
2013-09-22 07:06:00,61.2,60.3,29.59,NW,315,0.0,-999.0,97,-99.99,,,0.66,Acu-Link.com,2013-09-22 11:06:00,
2013-09-22 07:22:00,61.0,60.1,29.59,SW,225,1.7,-999.0,97,-99.99,,,0.68,Acu-Link.com,2013-09-22 11:22:00,
2013-09-22 07:37:00,61.0,60.1,29.59,ESE,112,0.0,-999.0,97,-99.99,,,0.70,Acu-Link.com,2013-09-22 11:37:00,
2013-09-22 07:52:00,60.8,59.9,29.59,ESE,112,0.0,-999.0,97,-99.99,,,0.71,Acu-Link.com,2013-09-22 11:52:00,
2013-09-22 08:07:00,61.0,60.1,29.59,WNW,292,1.1,-999.0,97,-99.99,,,0.71,Acu-Link.com,2013-09-22 12:07:00,
2013-09-22 08:23:00,61.3,60.4,29.59,NNW,337,0.0,-999.0,97,-99.99,,,0.71,Acu-Link.com,2013-09-22 12:23:00,
2013-09-22 08:38:00,61.7,60.8,29.59,ESE,112,1.1,-999.0,97,-99.99,,,0.71,Acu-Link.com,2013-09-22 12:38:00,
2013-09-22 08:53:00,62.1,61.2,29.60,NE,45,1.1,-999.0,97,-99.99,,,0.71,Acu-Link.com,2013-09-22 12:53:00,
2013-09-22 09:08:00,61.9,60.7,29.60,NNE,22,0.0,-999.0,96,-99.99,,,0.71,Acu-Link.com,2013-09-22 13:08:00,
2013-09-22 09:24:00,61.9,60.7,29.61,WSW,247,0.0,-999.0,96,-99.99,,,0.71,Acu-Link.com,2013-09-22 13:24:00,
2013-09-22 09:39:00,61.9,60.7,29.61,ENE,67,0.0,-999.0,96,-99.99,,,0.71,Acu-Link.com,2013-09-22 13:39:00,
2013-09-22 09:54:00,61.5,59.8,29.62,North,0,1.1,-999.0,94,-99.99,,,0.71,Acu-Link.com,2013-09-22 13:54:00,
2013-09-22 10:10:00,60.3,58.6,29.60,WNW,292,2.2,-999.0,94,-99.99,,,0.71,Acu-Link.com,2013-09-22 14:10:00,
2013-09-22 10:25:00,62.1,59.4,29.61,WNW,292,1.1,-999.0,91,-99.99,,,0.71,Acu-Link.com,2013-09-22 14:25:00,
2013-09-22 10:40:00,63.9,60.3,29.61,NW,315,0.0,-999.0,88,-99.99,,,0.71,Acu-Link.com,2013-09-22 14:40:00,
2013-09-22 10:56:00,63.9,59.3,29.60,WNW,292,2.7,-999.0,85,-99.99,,,0.71,Acu-Link.com,2013-09-22 14:56:00,
2013-09-22 11:11:00,66.0,58.6,29.60,East,90,3.2,-999.0,77,-99.99,,,0.71,Acu-Link.com,2013-09-22 15:11:00,
2013-09-22 11:26:00,66.2,57.7,29.60,West,270,2.7,-999.0,74,-99.99,,,0.71,Acu-Link.com,2013-09-22 15:26:00,
2013-09-22 11:41:00,66.4,57.5,29.61,WNW,292,2.7,-999.0,73,-99.99,,,0.71,Acu-Link.com,2013-09-22 15:41:00,
2013-09-22 11:56:00,66.4,57.5,29.61,West,270,1.1,-999.0,73,-99.99,,,0.71,Acu-Link.com,2013-09-22 15:56:00,
2013-09-22 12:12:00,66.6,56.1,29.60,WNW,292,2.7,-999.0,69,-99.99,,,0.71,Acu-Link.com,2013-09-22 16:12:00,
2013-09-22 12:27:00,67.8,56.8,29.60,ESE,112,3.7,-999.0,68,-99.99,,,0.71,Acu-Link.com,2013-09-22 16:27:00,
2013-09-22 12:42:00,67.3,55.5,29.60,West,270,2.7,-999.0,66,-99.99,,,0.71,Acu-Link.com,2013-09-22 16:42:00,
2013-09-22 12:57:00,66.7,55.0,29.61,WNW,292,1.7,-999.0,66,-99.99,,,0.71,Acu-Link.com,2013-09-22 16:57:00,
2013-09-22 13:12:00,67.3,54.3,29.61,WNW,292,1.7,-999.0,63,-99.99,,,0.71,Acu-Link.com,2013-09-22 17:12:00,
2013-09-22 13:27:00,68.0,54.5,29.61,WNW,292,3.2,-999.0,62,-99.99,,,0.71,Acu-Link.com,2013-09-22 17:27:00,
2013-09-22 13:42:00,68.5,54.5,29.60,WNW,292,2.2,-999.0,61,-99.99,,,0.71,Acu-Link.com,2013-09-22 17:42:00,
2013-09-22 13:57:00,66.7,54.6,29.61,ENE,67,2.2,-999.0,65,-99.99,,,0.71,Acu-Link.com,2013-09-22 17:57:00,
2013-09-22 14:13:00,68.0,53.1,29.61,NNE,22,2.2,-999.0,59,-99.99,,,0.71,Acu-Link.com,2013-09-22 18:13:00,
2013-09-22 14:28:00,67.3,53.8,29.61,NW,315,3.2,-999.0,62,-99.99,,,0.71,Acu-Link.com,2013-09-22 18:28:00,
2013-09-22 14:43:00,67.1,52.7,29.61,West,270,3.7,-999.0,60,-99.99,,,0.71,Acu-Link.com,2013-09-22 18:43:00,
2013-09-22 14:58:00,68.0,52.7,29.60,WNW,292,2.7,-999.0,58,-99.99,,,0.71,Acu-Link.com,2013-09-22 18:58:00,
2013-09-22 15:13:00,67.8,52.9,29.61,NW,315,4.2,-999.0,59,-99.99,,,0.71,Acu-Link.com,2013-09-22 19:13:00,
2013-09-22 15:28:00,66.2,52.8,29.61,WNW,292,2.7,-999.0,62,-99.99,,,0.71,Acu-Link.com,2013-09-22 19:28:00,
2013-09-22 15:43:00,66.0,53.5,29.61,NW,315,2.2,-999.0,64,-99.99,,,0.71,Acu-Link.com,2013-09-22 19:43:00,
2013-09-22 15:59:00,66.0,53.0,29.61,WNW,292,2.2,-999.0,63,-99.99,,,0.71,Acu-Link.com,2013-09-22 19:59:00,
2013-09-22 16:14:00,65.7,53.6,29.62,ESE,112,1.7,-999.0,65,-99.99,,,0.71,Acu-Link.com,2013-09-22 20:14:00,
2013-09-22 16:29:00,65.7,53.2,29.61,WNW,292,2.7,-999.0,64,-99.99,,,0.71,Acu-Link.com,2013-09-22 20:29:00,
2013-09-22 16:44:00,65.8,53.3,29.61,West,270,2.2,-999.0,64,-99.99,,,0.71,Acu-Link.com,2013-09-22 20:44:00,
2013-09-22 16:59:00,65.3,53.2,29.62,WNW,292,3.2,-999.0,65,-99.99,,,0.71,Acu-Link.com,2013-09-22 20:59:00,
2013-09-22 17:15:00,64.6,53.0,29.63,WNW,292,4.7,-999.0,66,-99.99,,,0.71,Acu-Link.com,2013-09-22 21:15:00,
2013-09-22 17:30:00,63.5,51.5,29.64,WNW,292,4.2,-999.0,65,-99.99,,,0.71,Acu-Link.com,2013-09-22 21:30:00,
2013-09-22 17:45:00,62.8,50.9,29.64,WNW,292,4.2,-999.0,65,-99.99,,,0.71,Acu-Link.com,2013-09-22 21:45:00,
2013-09-22 18:00:00,61.9,50.8,29.65,WNW,292,2.2,-999.0,67,-99.99,,,0.71,Acu-Link.com,2013-09-22 22:00:00,
2013-09-22 18:15:00,61.2,50.9,29.64,NW,315,3.2,-999.0,69,-99.99,,,0.71,Acu-Link.com,2013-09-22 22:15:00,
2013-09-22 18:31:00,60.6,50.8,29.66,NW,315,2.7,-999.0,70,-99.99,,,0.71,Acu-Link.com,2013-09-22 22:31:00,
2013-09-22 18:46:00,60.1,50.7,29.66,WNW,292,3.2,-999.0,71,-99.99,,,0.71,Acu-Link.com,2013-09-22 22:46:00,
2013-09-22 19:01:00,59.2,49.8,29.67,WSW,247,3.7,-999.0,71,-99.99,,,0.71,Acu-Link.com,2013-09-22 23:01:00,
2013-09-22 19:17:00,58.6,48.8,29.68,NW,315,2.7,-999.0,70,-99.99,,,0.71,Acu-Link.com,2013-09-22 23:17:00,
2013-09-22 19:32:00,57.7,48.7,29.69,NNW,337,2.2,-999.0,72,-99.99,,,0.71,Acu-Link.com,2013-09-22 23:32:00,
2013-09-22 19:47:00,57.0,48.4,29.70,WNW,292,1.7,-999.0,73,-99.99,,,0.71,Acu-Link.com,2013-09-22 23:47:00,
2013-09-22 20:03:00,56.7,48.1,29.71,NW,315,1.7,-999.0,73,-99.99,,,0.71,Acu-Link.com,2013-09-23 00:03:00,
2013-09-22 20:18:00,56.1,48.3,29.71,WNW,292,2.2,-999.0,75,-99.99,,,0.71,Acu-Link.com,2013-09-23 00:18:00,
2013-09-22 20:33:00,55.4,48.0,29.73,NW,315,2.7,-999.0,76,-99.99,,,0.71,Acu-Link.com,2013-09-23 00:33:00,
2013-09-22 20:48:00,55.4,48.3,29.73,WNW,292,3.7,-999.0,77,-99.99,,,0.71,Acu-Link.com,2013-09-23 00:48:00,
2013-09-22 21:03:00,55.0,48.3,29.73,WNW,292,2.7,-999.0,78,-99.99,,,0.71,Acu-Link.com,2013-09-23 01:03:00,
2013-09-22 21:19:00,54.7,48.3,29.73,WNW,292,2.2,-999.0,79,-99.99,,,0.71,Acu-Link.com,2013-09-23 01:19:00,
2013-09-22 21:34:00,54.1,47.7,29.74,NW,315,2.2,-999.0,79,-99.99,,,0.71,Acu-Link.com,2013-09-23 01:34:00,
2013-09-22 21:49:00,54.5,47.8,29.74,WNW,292,2.7,-999.0,78,-99.99,,,0.71,Acu-Link.com,2013-09-23 01:49:00,
2013-09-22 22:04:00,54.3,47.6,29.75,NW,315,2.2,-999.0,78,-99.99,,,0.71,Acu-Link.com,2013-09-23 02:04:00,
2013-09-22 22:20:00,54.0,47.3,29.76,WNW,292,2.7,-999.0,78,-99.99,,,0.71,Acu-Link.com,2013-09-23 02:20:00,
2013-09-22 22:35:00,53.8,47.1,29.76,WNW,292,1.7,-999.0,78,-99.99,,,0.71,Acu-Link.com,2013-09-23 02:35:00,
2013-09-22 22:50:00,53.4,47.1,29.77,WNW,292,0.0,-999.0,79,-99.99,,,0.71,Acu-Link.com,2013-09-23 02:50:00,
2013-09-22 23:05:00,52.7,46.4,29.77,WNW,292,4.2,-999.0,79,-99.99,,,0.71,Acu-Link.com,2013-09-23 03:05:00,
2013-09-22 23:20:00,53.1,45.0,29.78,WNW,292,3.2,-999.0,74,-99.99,,,0.71,Acu-Link.com,2013-09-23 03:20:00,
2013-09-22 23:36:00,52.9,44.1,29.78,NNW,337,1.7,-999.0,72,-99.99,,,0.71,Acu-Link.com,2013-09-23 03:36:00,
2013-09-22 23:51:00,52.5,43.7,29.78,WNW,292,2.7,-999.0,72,-99.99,,,0.71,Acu-Link.com,2013-09-23 03:51:00,